Flight Track Log - Related Links

Times and Time Zones

All times are in EDT time to prevent confusion due to time zone crossing. See the UAL4695 flight status page for this flight to view local times or setup timezone preferences in your user account.

Time Position Orientation Groundspeed Altitude Reporting Facility
EDT Latitude Longitude Course Direction KTS MPH feet Rate Location/Type
Sat 10:07:00 PM 42.4810 -73.2494 352° North  Level FlightAware Approximate
Sat 10:08:00 PM 42.5466 -73.2626 352° North  Level FlightAware Approximate
Sat 10:09:00 PM 42.5850 -73.2093 73° East  Level FlightAware Approximate
Sat 10:10:00 PM 42.6049 -73.1233 73° East  Level FlightAware Approximate
Sat 10:11:00 PM 42.6248 -73.0373 73° East  Level FlightAware Approximate
Sat 10:12:00 PM 42.6376 -72.9498 71° East  Level FlightAware Approximate
Sat 10:13:00 PM 42.6589 -72.8644 71° East  Level FlightAware Approximate
Sat 10:14:00 PM 42.6796 -72.7787 72° East  Level FlightAware Approximate
Sat 10:15:00 PM 42.6997 -72.6927 72° East  Level FlightAware Approximate
Sat 10:16:00 PM 42.7199 -72.6066 72° East  Level FlightAware Approximate
Sat 10:17:00 PM 42.7400 -72.5205 72° East  Level FlightAware Approximate
Sat 10:18:00 PM 42.7600 -72.4344 72° East  Level FlightAware Approximate
Sat 10:19:00 PM 42.7799 -72.3482 72° East  Level FlightAware Approximate
Sat 10:20:00 PM 42.7856 -72.2587 83° East  Level FlightAware Approximate
Sat 10:21:00 PM 42.7938 -72.1690 83° East  Level FlightAware Approximate
Sat 10:22:00 PM 42.8019 -72.0792 83° East  Level FlightAware Approximate
Sat 10:23:00 PM 42.8101 -71.9895 83° East  Level FlightAware Approximate
Sat 10:24:00 PM 42.8167 -71.8996 90° East  Level FlightAware Approximate
Sat 10:25:00 PM 42.8167 -71.8091 90° East  Level FlightAware Approximate
Sat 10:26:00 PM 42.8290 -71.7204 78° East  Level FlightAware Approximate
Sat 10:27:00 PM 42.8426 -71.6319 78° East  Level FlightAware Approximate

Login

Don't have an account? Register now (free) for customized features, flight alerts, and more!